Time;durP1;ratioP1;P1;durP2;ratioP2;P2;SDS_P1;SDS_P2;PMS_P1;PMS_P2;Temp;Humidity;BMP_temperature;BMP_pressure;BME280_temperature;BME280_humidity;BME280_pressure;Samples;Min_cycle;Max_cycle;Signal;HPM_P1;HPM_P2
2021/04/20 00:01:41;;;;;;;49.80;30.93;;;;;;;6.32;54.98;100134.02;147729;1147;104647;-77
2021/04/20 00:04:45;;;;;;;48.33;30.23;;;;;;;6.37;56.13;100127.36;147780;1147;104972;-74
2021/04/20 00:07:49;;;;;;;60.85;36.65;;;;;;;6.41;55.01;100120.83;147795;1147;104578;-73
2021/04/20 00:10:52;;;;;;;60.25;36.42;;;;;;;6.45;56.18;100118.77;147785;1147;104895;-75
2021/04/20 00:13:55;;;;;;;66.62;40.20;;;;;;;6.45;55.86;100118.77;147757;1147;104557;-73
2021/04/20 00:16:58;;;;;;;65.87;39.78;;;;;;;6.47;55.50;100111.52;147778;1148;104560;-72
2021/04/20 00:20:01;;;;;;;68.37;39.67;;;;;;;6.55;55.56;100111.70;147478;1147;104654;-72
2021/04/20 00:23:06;;;;;;;65.75;39.75;;;;;;;6.59;56.08;100105.16;147640;1148;104557;-77
2021/04/20 00:26:09;;;;;;;60.85;37.25;;;;;;;6.63;56.63;100095.97;147760;1147;104451;-73
2021/04/20 00:29:12;;;;;;;60.78;35.05;;;;;;;6.63;56.68;100111.87;147748;1147;104588;-73
2021/04/20 00:32:15;;;;;;;61.10;36.08;;;;;;;6.59;55.45;100107.81;147770;1147;104546;-75
2021/04/20 00:35:18;;;;;;;57.10;35.08;;;;;;;6.56;55.88;100110.71;147793;1147;104472;-75
2021/04/20 00:54:07;;;;;;;50.03;29.67;;;;;;;6.45;56.00;100098.39;148008;1148;104982;-77
2021/04/20 00:57:10;;;;;;;56.70;33.65;;;;;;;6.48;55.91;100097.28;147234;1148;104578;-76
2021/04/20 01:00:16;;;;;;;54.08;32.65;;;;;;;6.51;57.06;100101.50;147196;1147;104463;-77
2021/04/20 01:03:20;;;;;;;52.25;32.73;;;;;;;6.54;55.96;100101.22;147214;1148;104560;-77
2021/04/20 01:06:23;;;;;;;54.87;32.83;;;;;;;6.55;56.40;100101.09;147422;1148;104588;-76
2021/04/20 01:09:27;;;;;;;50.15;31.48;;;;;;;6.54;56.52;100098.56;147803;1148;104606;-77
2021/04/20 01:12:31;;;;;;;51.00;30.62;;;;;;;6.46;56.10;100097.41;147845;1147;104467;-75
2021/04/20 01:15:36;;;;;;;43.97;29.27;;;;;;;6.39;56.76;100084.80;147782;1147;104531;-73
2021/04/20 01:18:40;;;;;;;47.93;29.57;;;;;;;6.35;56.12;100083.38;147818;1147;104449;-74
2021/04/20 01:21:47;;;;;;;45.10;28.50;;;;;;;6.31;56.20;100076.67;147788;1147;104569;-74
2021/04/20 01:24:51;;;;;;;48.43;30.87;;;;;;;6.23;56.41;100094.05;147790;1147;104524;-75
2021/04/20 01:27:55;;;;;;;51.90;32.67;;;;;;;6.08;56.43;100101.49;147818;1147;104535;-74
2021/04/20 01:30:59;;;;;;;54.75;32.95;;;;;;;6.00;57.25;100093.32;147777;1147;104479;-74
2021/04/20 01:34:02;;;;;;;50.25;30.97;;;;;;;6.00;56.93;100092.49;147780;1147;104458;-73
2021/04/20 01:37:06;;;;;;;48.48;30.52;;;;;;;5.97;56.77;100098.89;147704;1147;104572;-73
2021/04/20 01:40:11;;;;;;;43.78;28.27;;;;;;;5.96;57.39;100091.06;147614;1147;104657;-74
2021/04/20 01:43:15;;;;;;;44.60;28.27;;;;;;;5.94;57.19;100093.80;147341;1147;104525;-77
2021/04/20 01:46:18;;;;;;;49.30;30.17;;;;;;;5.89;56.90;100096.84;147735;1147;104485;-72
2021/04/20 01:49:22;;;;;;;48.28;30.48;;;;;;;5.86;57.30;100097.09;147751;1147;104566;-74
2021/04/20 01:52:25;;;;;;;48.90;29.90;;;;;;;5.80;57.55;100092.30;147692;1147;104455;-75
2021/04/20 01:55:29;;;;;;;45.78;28.65;;;;;;;5.70;56.78;100086.92;147624;1147;104432;-74
2021/04/20 01:58:33;;;;;;;46.48;28.35;;;;;;;5.66;57.18;100092.61;147780;1148;104477;-77
2021/04/20 02:01:36;;;;;;;45.92;28.42;;;;;;;5.61;57.12;100092.97;147623;1147;104476;-75
2021/04/20 02:04:39;;;;;;;45.92;28.70;;;;;;;5.58;57.24;100100.31;147800;1147;104566;-76
2021/04/20 02:07:43;;;;;;;46.77;29.35;;;;;;;5.53;57.46;100094.58;147813;1146;104678;-77
2021/04/20 02:10:47;;;;;;;49.85;29.40;;;;;;;5.43;57.08;100100.61;148280;1148;104479;-76
2021/04/20 02:13:51;;;;;;;45.77;27.90;;;;;;;5.39;57.45;100095.66;147855;1146;104448;-77
2021/04/20 02:16:56;;;;;;;44.83;28.75;;;;;;;5.36;57.38;100094.13;147777;1147;104480;-76
2021/04/20 02:20:01;;;;;;;42.35;26.82;;;;;;;5.35;57.20;100099.53;147761;1146;104479;-77
2021/04/20 02:23:06;;;;;;;44.33;27.02;;;;;;;5.31;57.32;100101.58;147729;1147;104447;-77
2021/04/20 02:26:12;;;;;;;45.33;27.83;;;;;;;5.29;57.20;100093.78;147808;1147;104623;-75
2021/04/20 02:29:15;;;;;;;46.23;28.00;;;;;;;5.33;57.24;100099.64;147786;1147;104531;-78
2021/04/20 02:32:18;;;;;;;45.03;27.82;;;;;;;5.37;57.49;100098.46;147710;1147;104470;-75
2021/04/20 02:35:22;;;;;;;42.60;27.77;;;;;;;5.39;57.32;100099.17;147712;1146;104572;-74
2021/04/20 02:38:25;;;;;;;43.28;27.65;;;;;;;5.44;57.64;100096.15;147601;1147;104596;-80
2021/04/20 02:41:30;;;;;;;41.28;26.48;;;;;;;5.44;57.30;100096.98;147729;1147;104693;-77
2021/04/20 02:44:33;;;;;;;44.65;25.90;;;;;;;5.44;57.53;100102.27;147712;1147;104566;-76
2021/04/20 02:47:37;;;;;;;39.97;26.27;;;;;;;5.42;57.72;100093.62;147702;1147;104442;-78
2021/04/20 02:50:42;;;;;;;44.70;27.25;;;;;;;5.39;57.86;100093.02;147995;1146;105014;-74
2021/04/20 02:53:47;;;;;;;43.90;27.00;;;;;;;5.33;57.82;100102.29;148233;1147;104448;-74
2021/04/20 02:56:51;;;;;;;44.57;26.70;;;;;;;5.28;57.80;100097.38;148097;1146;104606;-74
2021/04/20 02:59:55;;;;;;;40.83;26.40;;;;;;;5.24;57.41;100088.02;148028;1148;104572;-73
2021/04/20 03:03:01;;;;;;;40.45;25.75;;;;;;;5.22;57.99;100086.47;147799;1148;104492;-73
2021/04/20 03:06:06;;;;;;;42.83;26.27;;;;;;;5.08;57.91;100085.76;147852;1147;104574;-71
2021/04/20 03:09:09;;;;;;;41.92;26.33;;;;;;;4.97;58.02;100072.55;147808;1147;104568;-71
2021/04/20 03:12:15;;;;;;;44.05;26.20;;;;;;;4.94;57.94;100083.34;147754;1147;104593;-72
2021/04/20 03:15:19;;;;;;;43.83;27.10;;;;;;;4.93;57.97;100081.69;147699;1147;104572;-72
2021/04/20 03:18:22;;;;;;;41.98;25.90;;;;;;;4.89;58.20;100078.44;147505;1147;104516;-71
2021/04/20 03:21:26;;;;;;;42.58;26.48;;;;;;;4.84;57.91;100074.47;147776;1147;104568;-75
2021/04/20 03:25:13;;;;;;;43.52;26.15;;;;;;;4.80;57.83;100080.97;147783;1147;105060;-71
2021/04/20 03:28:17;;;;;;;40.52;25.95;;;;;;;4.79;58.01;100076.62;147788;1147;104455;-70
2021/04/20 03:31:21;;;;;;;42.62;26.37;;;;;;;4.74;57.91;100081.45;147762;1147;104479;-70
2021/04/20 03:34:28;;;;;;;49.83;28.38;;;;;;;4.63;57.15;100080.47;147446;1147;104556;-74
2021/04/20 03:37:35;;;;;;;44.42;27.60;;;;;;;4.51;57.48;100082.26;147713;1147;104558;-71
2021/04/20 03:40:42;;;;;;;47.83;26.73;;;;;;;4.49;58.20;100085.99;147764;1148;104439;-71
2021/04/20 03:43:47;;;;;;;42.70;27.55;;;;;;;4.51;58.47;100076.14;147649;1147;104633;-72
2021/04/20 03:46:54;;;;;;;45.90;27.67;;;;;;;4.52;58.22;100078.67;147636;1147;104553;-70
2021/04/20 03:50:00;;;;;;;49.18;28.77;;;;;;;4.54;58.18;100075.89;147780;1147;104953;-71
2021/04/20 03:53:07;;;;;;;47.30;28.17;;;;;;;4.56;57.72;100076.64;147798;1147;104497;-71
2021/04/20 03:56:12;;;;;;;46.58;28.15;;;;;;;4.57;58.12;100065.09;147759;1147;104578;-71
2021/04/20 03:59:19;;;;;;;47.63;28.50;;;;;;;4.58;58.44;100063.28;147775;1147;104617;-72
2021/04/20 04:02:22;;;;;;;47.48;29.00;;;;;;;4.61;58.30;100071.81;147796;1147;105017;-73
2021/04/20 04:05:27;;;;;;;48.80;30.27;;;;;;;4.69;58.60;100074.70;147753;1147;104473;-72
2021/04/20 04:08:33;;;;;;;50.92;30.00;;;;;;;4.78;58.40;100067.03;147795;1146;104495;-72
2021/04/20 04:11:39;;;;;;;48.38;29.92;;;;;;;4.87;58.60;100071.59;147448;1147;104508;-72
2021/04/20 04:14:43;;;;;;;47.75;29.87;;;;;;;4.94;58.56;100072.77;147636;1146;104614;-72
2021/04/20 04:17:48;;;;;;;48.10;30.07;;;;;;;5.05;58.58;100070.13;147301;1148;104576;-72
2021/04/20 04:20:51;;;;;;;46.80;29.75;;;;;;;5.20;58.60;100068.06;147775;1147;104573;-72
2021/04/20 04:24:00;;;;;;;46.83;29.00;;;;;;;5.35;58.52;100065.13;147786;1147;104484;-75
2021/04/20 04:27:06;;;;;;;47.60;29.85;;;;;;;5.44;58.89;100072.33;147750;1147;104577;-72
2021/04/20 04:30:12;;;;;;;45.05;28.95;;;;;;;5.64;58.72;100070.69;147806;1148;104611;-72
2021/04/20 04:33:16;;;;;;;47.90;31.07;;;;;;;5.92;58.75;100077.20;147857;1146;104542;-74
2021/04/20 04:36:19;;;;;;;46.87;31.67;;;;;;;6.20;58.23;100074.95;147794;1147;104486;-71
2021/04/20 04:39:23;;;;;;;47.53;29.80;;;;;;;6.50;58.41;100082.08;147764;1147;104508;-73
2021/04/20 04:42:26;;;;;;;48.85;29.92;;;;;;;6.84;59.38;100071.23;147682;1147;104560;-72
2021/04/20 04:45:30;;;;;;;44.08;27.42;;;;;;;7.19;58.93;100075.25;147791;1147;104579;-71
2021/04/20 04:48:35;;;;;;;46.90;29.32;;;;;;;7.53;58.42;100072.25;147872;1147;104498;-72
2021/04/20 04:51:40;;;;;;;44.67;28.65;;;;;;;7.85;58.65;100078.14;147759;1147;104458;-71
2021/04/20 04:54:44;;;;;;;43.28;28.65;;;;;;;8.15;58.50;100081.61;147665;1147;104566;-72
2021/04/20 04:57:50;;;;;;;50.43;31.73;;;;;;;8.37;58.44;100079.61;147718;1147;104447;-74
2021/04/20 05:00:56;;;;;;;49.98;32.13;;;;;;;8.58;58.23;100076.80;147831;1147;104626;-75
2021/04/20 05:04:07;;;;;;;51.43;33.30;;;;;;;8.76;58.49;100066.25;147822;1146;104564;-76
2021/04/20 05:07:11;;;;;;;49.05;32.63;;;;;;;8.94;58.32;100064.48;147817;1146;104467;-72
2021/04/20 05:10:14;;;;;;;52.95;34.43;;;;;;;9.02;58.71;100061.91;147581;1146;104479;-72
2021/04/20 05:13:19;;;;;;;51.73;33.92;;;;;;;9.22;59.07;100072.48;147529;1147;104572;-72
2021/04/20 05:16:22;;;;;;;53.97;34.47;;;;;;;9.40;59.04;100069.84;147255;1147;104675;-68
2021/04/20 05:19:29;;;;;;;56.02;36.25;;;;;;;9.54;58.70;100071.14;147135;1147;104473;-71
2021/04/20 05:22:34;;;;;;;59.20;35.52;;;;;;;9.70;59.02;100065.98;147134;1147;104512;-71
2021/04/20 05:25:38;;;;;;;60.55;40.50;;;;;;;9.83;58.58;100066.44;147275;1147;104444;-72
2021/04/20 05:28:41;;;;;;;50.98;34.75;;;;;;;9.95;58.81;100068.84;147336;1147;104566;-68
2021/04/20 05:31:45;;;;;;;47.93;32.87;;;;;;;10.01;58.83;100065.59;147273;1148;105203;-70
2021/04/20 05:34:50;;;;;;;52.37;33.40;;;;;;;10.12;58.65;100072.49;147345;1146;104513;-73
2021/04/20 05:37:53;;;;;;;51.00;33.33;;;;;;;10.22;58.56;100074.09;147368;1147;104566;-68
2021/04/20 05:40:56;;;;;;;52.53;33.10;;;;;;;10.28;57.80;100069.96;147305;1146;104471;-70
2021/04/20 05:44:01;;;;;;;39.88;26.77;;;;;;;10.36;58.24;100080.71;147333;1146;104450;-71
2021/04/20 05:47:05;;;;;;;35.33;23.83;;;;;;;10.43;58.75;100072.08;147276;1147;104613;-71
2021/04/20 05:50:10;;;;;;;32.38;21.68;;;;;;;10.51;58.11;100077.48;147274;1147;104478;-70
2021/04/20 05:53:13;;;;;;;33.92;21.87;;;;;;;10.56;58.61;100080.50;147316;1146;104474;-72
2021/04/20 05:56:19;;;;;;;29.27;20.60;;;;;;;10.61;57.56;100076.37;147214;1147;104652;-71
2021/04/20 05:59:22;;;;;;;34.63;21.17;;;;;;;10.68;57.99;100075.73;147340;1146;104467;-72
2021/04/20 06:02:30;;;;;;;30.20;20.23;;;;;;;10.72;58.14;100077.95;147160;1147;104472;-73
2021/04/20 06:05:33;;;;;;;27.93;19.27;;;;;;;10.76;57.74;100075.80;147302;1147;104485;-73
2021/04/20 06:08:38;;;;;;;28.17;19.00;;;;;;;10.78;57.88;100069.30;147444;1146;104498;-72
2021/04/20 06:11:41;;;;;;;36.23;22.15;;;;;;;10.83;58.30;100078.66;147633;1146;104478;-72
2021/04/20 06:14:49;;;;;;;31.50;21.23;;;;;;;10.84;57.93;100078.50;147632;1146;104551;-72
2021/04/20 06:17:52;;;;;;;32.55;21.35;;;;;;;10.87;57.73;100077.34;147699;1146;104643;-73
2021/04/20 06:20:59;;;;;;;33.08;19.95;;;;;;;10.90;57.42;100074.36;147605;1147;104610;-73
2021/04/20 06:24:02;;;;;;;30.02;19.40;;;;;;;10.94;57.80;100071.20;147283;1147;104803;-73
2021/04/20 06:27:07;;;;;;;24.25;15.38;;;;;;;10.97;57.13;100059.36;147641;1148;104480;-73
2021/04/20 06:30:13;;;;;;;26.45;15.68;;;;;;;11.04;57.49;100064.91;147761;1147;104579;-74
2021/04/20 06:33:16;;;;;;;21.82;14.10;;;;;;;11.08;57.04;100066.25;147722;1147;104635;-73
2021/04/20 06:36:20;;;;;;;18.33;11.13;;;;;;;11.15;56.52;100065.45;147774;1147;104481;-72
2021/04/20 06:39:23;;;;;;;15.32;10.25;;;;;;;11.20;56.54;100070.29;147367;1147;104560;-74
2021/04/20 06:42:31;;;;;;;14.63;10.00;;;;;;;11.29;56.34;100073.84;147636;1146;104561;-73
2021/04/20 06:45:38;;;;;;;13.22;9.10;;;;;;;11.35;56.83;100057.98;147754;1147;104860;-73
2021/04/20 06:48:44;;;;;;;14.70;9.90;;;;;;;11.45;56.82;100059.69;147708;1147;105065;-73
2021/04/20 06:51:52;;;;;;;11.75;8.13;;;;;;;11.50;56.02;100058.20;147639;1147;104447;-72
2021/04/20 06:55:06;;;;;;;12.07;8.43;;;;;;;11.56;55.98;100062.05;147262;1146;104562;-73
2021/04/20 06:58:14;;;;;;;12.13;8.13;;;;;;;11.63;56.67;100055.05;147712;1147;105043;-72
2021/04/20 07:01:26;;;;;;;11.97;7.87;;;;;;;11.73;56.03;100061.07;147757;1147;104565;-72
2021/04/20 07:04:42;;;;;;;9.85;5.92;;;;;;;11.81;55.54;100060.24;147462;1145;104598;-73
2021/04/20 07:08:03;;;;;;;7.50;5.40;;;;;;;11.86;55.64;100049.90;147347;1148;104529;-73
2021/04/20 07:11:10;;;;;;;6.90;4.65;;;;;;;11.96;55.42;100053.27;147639;1147;104451;-73
2021/04/20 07:14:25;;;;;;;7.75;4.97;;;;;;;12.05;54.87;100054.11;147482;1146;104476;-73
2021/04/20 07:17:58;;;;;;;5.58;4.33;;;;;;;12.13;55.06;100051.42;147418;1147;104556;-73
2021/04/20 07:21:23;;;;;;;7.30;4.47;;;;;;;12.25;54.69;100051.09;147577;1146;104593;-73
2021/04/20 07:24:37;;;;;;;6.33;4.60;;;;;;;12.35;54.94;100043.70;147322;1147;104490;-73
2021/04/20 07:27:55;;;;;;;6.10;4.33;;;;;;;12.41;54.47;100040.34;147553;1146;104563;-70
2021/04/20 07:31:10;;;;;;;6.83;4.87;;;;;;;12.49;54.27;100044.84;147570;1146;104570;-73
2021/04/20 07:34:23;;;;;;;7.58;5.15;;;;;;;12.56;54.21;100040.48;147541;1147;104502;-72
2021/04/20 07:37:39;;;;;;;10.10;5.97;;;;;;;12.63;53.65;100046.83;147562;1146;104658;-72
2021/04/20 07:40:49;;;;;;;7.93;5.80;;;;;;;12.73;54.20;100041.28;147730;1146;104603;-72
2021/04/20 07:44:02;;;;;;;8.18;5.58;;;;;;;12.78;53.54;100041.61;147778;1147;104463;-71
2021/04/20 07:47:11;;;;;;;10.05;5.78;;;;;;;12.83;53.38;100038.40;147393;1146;104471;-71
2021/04/20 07:50:18;;;;;;;8.60;6.30;;;;;;;12.88;53.76;100031.52;147286;1146;104477;-69
2021/04/20 07:53:30;;;;;;;6.87;5.50;;;;;;;12.91;53.62;100033.86;147192;1147;104613;-71
2021/04/20 07:56:36;;;;;;;;;;;;;;;12.94;53.49;100020.11;147691;1147;104680;-71
2021/04/20 07:59:54;;;;;;;9.40;5.67;;;;;;;13.02;53.66;100024.59;147707;1147;104505;-71
2021/04/20 08:03:06;;;;;;;8.05;6.22;;;;;;;13.13;53.70;100023.37;147779;1147;104444;-74
2021/04/20 08:06:14;;;;;;;7.83;5.70;;;;;;;13.21;53.52;100033.22;147822;1148;104566;-72
2021/04/20 08:09:36;;;;;;;8.00;6.07;;;;;;;13.27;53.61;100022.61;147828;1147;104483;-74
2021/04/20 08:12:50;;;;;;;7.55;5.87;;;;;;;13.34;53.70;100020.94;147773;1147;104568;-72
2021/04/20 08:15:55;;;;;;;6.63;5.20;;;;;;;13.41;53.21;100018.37;147830;1146;104479;-72
2021/04/20 08:19:04;;;;;;;7.85;5.25;;;;;;;13.45;53.22;100024.21;147779;1146;104482;-71
2021/04/20 08:22:08;;;;;;;7.80;5.40;;;;;;;13.52;52.75;100014.45;147791;1146;104467;-72
2021/04/20 08:25:20;;;;;;;7.47;4.70;;;;;;;13.58;51.87;100008.38;147761;1145;105275;-73
2021/04/20 08:28:40;;;;;;;7.12;4.30;;;;;;;13.66;52.07;100012.84;147749;1148;104565;-71
2021/04/20 08:31:50;;;;;;;7.45;4.30;;;;;;;13.71;52.47;100013.15;147727;1147;104566;-71
2021/04/20 08:35:01;;;;;;;4.83;3.67;;;;;;;13.79;51.59;100006.89;147808;1147;104831;-72
2021/04/20 08:38:11;;;;;;;5.72;3.67;;;;;;;13.84;51.77;100001.83;147797;1147;104487;-72
2021/04/20 08:41:21;;;;;;;5.20;3.77;;;;;;;13.97;51.77;100014.61;147642;1146;104549;-72
2021/04/20 08:44:30;;;;;;;5.53;4.15;;;;;;;14.09;51.53;99999.77;147407;1147;104570;-72
2021/04/20 08:47:41;;;;;;;6.50;4.60;;;;;;;14.16;50.97;99994.48;147636;1146;104552;-73
2021/04/20 08:50:51;;;;;;;4.40;3.57;;;;;;;14.22;50.68;99999.97;147541;1147;104489;-72
2021/04/20 08:54:09;;;;;;;3.98;3.20;;;;;;;14.31;49.43;99992.65;147542;1146;104438;-72
2021/04/20 08:57:26;;;;;;;4.72;2.92;;;;;;;14.43;49.98;99996.53;147613;1146;104598;-72
2021/04/20 09:00:39;;;;;;;3.70;3.20;;;;;;;14.58;50.08;99995.75;147748;1146;104483;-72
2021/04/20 09:03:50;;;;;;;5.08;3.00;;;;;;;14.72;49.00;100001.12;147708;1146;104549;-72
2021/04/20 09:06:55;;;;;;;;;;;;;;;14.85;48.24;99989.70;147626;1146;104563;-71
2021/04/20 09:10:05;;;;;;;4.37;2.87;;;;;;;14.96;48.22;99991.08;147820;1145;104808;-72
2021/04/20 09:13:14;;;;;;;4.03;3.10;;;;;;;15.09;49.25;99985.05;147767;1145;104599;-72
2021/04/20 09:16:25;;;;;;;4.70;3.07;;;;;;;15.25;48.65;99973.22;147807;1146;104566;-71
2021/04/20 09:19:34;;;;;;;4.37;3.02;;;;;;;15.46;48.41;99978.60;147753;1147;104504;-74
2021/04/20 09:22:53;;;;;;;4.05;3.12;;;;;;;15.67;47.24;99974.25;147696;1147;105194;-73
2021/04/20 09:26:10;;;;;;;3.70;2.90;;;;;;;15.88;48.30;99976.13;147759;1146;104562;-72
2021/04/20 09:29:17;;;;;;;4.05;2.92;;;;;;;16.14;48.12;99963.87;147818;1147;104521;-72
2021/04/20 09:32:22;;;;;;;21.17;12.55;;;;;;;16.33;47.57;99968.56;147837;1147;104505;-72
2021/04/20 09:35:27;;;;;;;4.17;3.40;;;;;;;16.52;47.89;99968.89;147783;1146;104513;-72
2021/04/20 09:38:30;;;;;;;4.08;3.10;;;;;;;16.71;48.19;99965.45;147712;1146;104508;-72
2021/04/20 09:41:39;;;;;;;4.33;3.08;;;;;;;16.80;46.80;99966.95;147762;1147;104561;-72
2021/04/20 09:44:57;;;;;;;4.25;3.45;;;;;;;16.92;45.71;99963.69;147818;1145;104645;-72
2021/04/20 09:48:10;;;;;;;3.58;2.95;;;;;;;16.94;45.37;99962.47;147694;1148;104631;-71
2021/04/20 09:51:18;;;;;;;3.90;3.12;;;;;;;17.03;45.76;99960.41;147566;1146;104553;-73
2021/04/20 09:54:28;;;;;;;27.05;15.58;;;;;;;17.02;45.42;99953.38;147727;1147;104565;-71
2021/04/20 09:57:40;;;;;;;6.80;4.75;;;;;;;16.96;46.12;99954.19;147760;1147;104825;-72
2021/04/20 10:00:44;;;;;;;6.30;4.15;;;;;;;16.95;46.28;99957.91;147797;1146;104524;-72
2021/04/20 10:03:58;;;;;;;5.22;4.12;;;;;;;16.99;45.86;99951.89;147801;1147;104571;-73
2021/04/20 10:07:18;;;;;;;4.95;3.77;;;;;;;17.06;45.46;99950.06;147833;1146;104492;-72
2021/04/20 10:10:35;;;;;;;3.70;3.12;;;;;;;17.14;45.14;99940.13;147765;1147;104471;-72
2021/04/20 10:14:05;;;;;;;6.73;5.20;;;;;;;17.20;44.72;99942.01;147754;1147;104474;-72
2021/04/20 10:17:16;;;;;;;7.83;6.08;;;;;;;17.22;44.24;99946.15;147698;1147;104464;-73
2021/04/20 10:20:29;;;;;;;5.85;3.80;;;;;;;17.18;44.57;99944.08;147776;1147;104569;-73
2021/04/20 10:23:52;;;;;;;3.85;3.12;;;;;;;17.18;44.77;99942.20;147605;1148;104444;-72
2021/04/20 10:27:02;;;;;;;4.60;3.90;;;;;;;17.16;44.32;99944.27;147279;1147;104405;-71
2021/04/20 10:30:11;;;;;;;6.08;3.42;;;;;;;17.10;44.34;99947.80;147426;1146;104502;-72
2021/04/20 10:33:21;;;;;;;5.22;3.33;;;;;;;17.06;44.24;99938.45;147577;1146;104530;-72
2021/04/20 10:36:27;;;;;;;3.80;2.83;;;;;;;17.08;44.77;99931.81;147775;1147;104479;-73
2021/04/20 10:39:31;;;;;;;5.40;3.43;;;;;;;17.15;43.79;99941.78;147752;1147;104566;-73
2021/04/20 10:42:36;;;;;;;3.65;3.25;;;;;;;17.13;44.13;99933.92;147689;1147;104557;-73
2021/04/20 10:45:41;;;;;;;9.03;5.35;;;;;;;17.14;43.89;99934.74;147791;1147;104904;-72
2021/04/20 10:48:47;;;;;;;20.15;12.80;;;;;;;17.14;44.01;99932.87;147738;1147;104501;-73
2021/04/20 10:51:57;;;;;;;6.40;4.53;;;;;;;17.11;43.99;99933.30;147860;1146;104565;-73
2021/04/20 10:55:05;;;;;;;5.57;3.70;;;;;;;17.16;43.84;99922.70;147820;1146;104530;-72
2021/04/20 10:58:10;;;;;;;6.42;3.52;;;;;;;17.25;43.98;99932.27;147745;1146;104806;-72
2021/04/20 11:01:20;;;;;;;6.55;4.62;;;;;;;17.35;43.90;99925.66;147770;1147;104489;-73
2021/04/20 11:04:25;;;;;;;4.40;3.87;;;;;;;17.26;40.84;99927.70;147757;1147;104576;-74
2021/04/20 11:07:33;;;;;;;4.55;3.80;;;;;;;17.13;42.20;99923.13;147710;1148;104568;-73
2021/04/20 11:10:37;;;;;;;4.25;3.70;;;;;;;17.13;41.26;99919.59;147697;1147;104476;-73
2021/04/20 11:13:42;;;;;;;6.93;4.17;;;;;;;17.14;41.31;99922.08;147770;1147;104566;-73
2021/04/20 11:16:51;;;;;;;4.25;3.40;;;;;;;17.12;42.99;99915.24;147712;1146;104474;-73
2021/04/20 11:20:05;;;;;;;4.33;3.37;;;;;;;17.20;43.13;99912.34;147748;1147;104604;-72
2021/04/20 11:23:19;;;;;;;4.65;3.70;;;;;;;17.34;42.62;99910.50;147855;1147;104563;-73
2021/04/20 11:26:31;;;;;;;4.28;3.37;;;;;;;17.39;42.94;99905.33;147773;1146;104548;-72
2021/04/20 11:29:37;;;;;;;;;;;;;;;17.39;42.95;99902.63;147383;1147;104479;-73
2021/04/20 11:32:49;;;;;;;7.55;4.95;;;;;;;17.36;42.40;99895.80;147255;1146;104569;-72
2021/04/20 11:35:57;;;;;;;7.10;4.85;;;;;;;17.38;42.67;99893.72;147255;1146;104549;-71
2021/04/20 11:39:03;;;;;;;4.12;3.42;;;;;;;17.46;42.97;99895.37;147377;1147;104473;-73
2021/04/20 11:42:11;;;;;;;13.40;8.23;;;;;;;17.54;42.21;99895.16;147327;1148;104528;-73
2021/04/20 11:45:18;;;;;;;27.60;15.72;;;;;;;17.53;42.40;99884.58;147291;1146;104604;-72
2021/04/20 11:48:28;;;;;;;14.40;7.50;;;;;;;17.65;42.50;99889.15;147486;1146;104484;-73
2021/04/20 11:51:36;;;;;;;8.33;4.53;;;;;;;17.72;41.85;99885.61;147761;1146;104607;-73
2021/04/20 11:54:40;;;;;;;6.45;5.08;;;;;;;17.74;41.97;99884.35;147845;1146;104559;-72
2021/04/20 11:57:46;;;;;;;6.37;4.72;;;;;;;17.73;41.59;99879.19;147790;1147;104515;-73
2021/04/20 12:00:52;;;;;;;5.42;3.83;;;;;;;17.64;42.18;99879.37;147755;1147;104486;-73
2021/04/20 12:03:59;;;;;;;5.70;3.90;;;;;;;17.58;41.97;99877.52;147809;1147;104457;-73
2021/04/20 12:07:03;;;;;;;7.10;3.90;;;;;;;17.41;40.59;99870.88;147792;1147;104612;-73
2021/04/20 12:10:15;;;;;;;6.35;4.08;;;;;;;17.16;41.95;99870.66;147795;1148;104547;-73
2021/04/20 12:13:23;;;;;;;10.00;6.62;;;;;;;17.12;41.58;99872.94;147761;1147;104882;-72
2021/04/20 12:16:34;;;;;;;6.17;4.50;;;;;;;17.05;41.41;99862.16;147799;1147;104563;-73
2021/04/20 12:19:38;;;;;;;5.93;4.53;;;;;;;16.98;40.92;99857.79;147880;1146;104675;-73
2021/04/20 12:22:45;;;;;;;5.80;3.75;;;;;;;16.89;41.88;99857.14;147752;1147;104638;-72
2021/04/20 12:25:52;;;;;;;6.15;4.22;;;;;;;16.92;41.44;99856.73;147799;1147;104597;-72
2021/04/20 12:28:58;;;;;;;4.85;3.95;;;;;;;16.90;41.45;99857.95;147684;1147;104492;-72
2021/04/20 12:32:10;;;;;;;5.28;4.45;;;;;;;16.95;40.10;99855.49;147755;1146;104450;-73
2021/04/20 12:35:14;;;;;;;6.27;4.23;;;;;;;16.88;40.62;99847.41;147703;1147;104550;-72
2021/04/20 12:38:21;;;;;;;4.90;4.10;;;;;;;17.00;41.09;99839.55;147425;1147;104567;-71
2021/04/20 12:41:27;;;;;;;5.53;3.90;;;;;;;17.21;41.64;99847.44;147388;1147;104930;-74
2021/04/20 12:44:36;;;;;;;4.62;3.55;;;;;;;17.36;41.61;99841.00;147811;1147;104556;-73
2021/04/20 12:47:41;;;;;;;4.90;3.92;;;;;;;17.42;41.36;99834.80;147749;1147;104553;-73
2021/04/20 12:50:48;;;;;;;4.40;3.70;;;;;;;17.44;41.61;99835.42;147780;1147;104566;-73
2021/04/20 12:53:54;;;;;;;4.50;3.80;;;;;;;17.42;41.79;99826.70;147774;1147;104625;-72
2021/04/20 12:57:02;;;;;;;7.17;4.13;;;;;;;17.40;41.51;99831.48;147539;1147;104480;-69
2021/04/20 13:00:16;;;;;;;4.87;3.92;;;;;;;17.34;41.54;99838.53;147772;1147;104480;-73
2021/04/20 13:03:24;;;;;;;5.50;3.70;;;;;;;17.33;41.96;99827.95;147789;1147;104486;-73
2021/04/20 13:06:28;;;;;;;3.90;3.45;;;;;;;17.31;41.65;99824.63;147369;1147;104562;-74
2021/04/20 13:09:37;;;;;;;6.45;3.80;;;;;;;17.27;41.28;99838.52;147623;1145;104564;-73
2021/04/20 13:12:43;;;;;;;5.25;3.87;;;;;;;17.22;40.92;99824.81;147816;1147;104857;-73
2021/04/20 13:15:47;;;;;;;4.58;3.90;;;;;;;17.22;41.27;99824.81;147743;1147;104504;-73
2021/04/20 13:18:56;;;;;;;5.70;3.65;;;;;;;17.25;41.14;99829.81;147685;1147;104569;-73
2021/04/20 13:22:02;;;;;;;4.67;3.90;;;;;;;17.26;40.70;99820.70;147792;1147;104482;-73
2021/04/20 13:25:09;;;;;;;6.13;4.03;;;;;;;17.29;41.03;99815.92;147739;1147;104748;-73
2021/04/20 13:28:12;;;;;;;4.10;3.70;;;;;;;17.29;40.49;99821.31;147793;1147;104495;-73
2021/04/20 13:31:18;;;;;;;4.83;4.30;;;;;;;17.30;39.87;99807.60;147812;1148;104491;-73
2021/04/20 13:34:27;;;;;;;7.00;5.22;;;;;;;17.19;40.00;99814.47;147763;1146;104471;-73
2021/04/20 13:37:33;;;;;;;5.50;4.70;;;;;;;17.22;39.86;99805.13;147708;1148;104547;-72
2021/04/20 13:40:37;;;;;;;6.63;5.20;;;;;;;17.36;40.41;99805.94;147399;1146;104563;-71
2021/04/20 13:43:45;;;;;;;16.40;11.48;;;;;;;17.45;40.35;99802.00;147267;1147;104454;-74
2021/04/20 13:46:50;;;;;;;8.75;5.95;;;;;;;17.48;39.98;99801.59;147675;1147;104485;-73
2021/04/20 13:49:55;;;;;;;8.37;5.50;;;;;;;17.53;40.25;99798.25;147833;1147;104610;-73
2021/04/20 13:53:06;;;;;;;6.80;4.85;;;;;;;17.50;39.88;99799.52;147614;1147;104566;-72
2021/04/20 13:56:19;;;;;;;14.90;7.58;;;;;;;17.52;39.68;99794.73;147700;1147;104476;-75
2021/04/20 13:59:26;;;;;;;36.00;22.55;;;;;;;17.60;39.76;99793.69;147455;1146;104549;-73
2021/04/20 14:02:34;;;;;;;18.70;11.22;;;;;;;17.71;39.97;99789.52;147673;1147;104559;-76
2021/04/20 14:05:42;;;;;;;7.70;6.00;;;;;;;17.78;39.48;99787.62;147652;1147;104600;-74
2021/04/20 14:09:00;;;;;;;7.47;5.72;;;;;;;17.85;38.96;99778.48;147624;1147;104444;-71
2021/04/20 14:12:06;;;;;;;5.80;4.53;;;;;;;17.81;39.04;99781.81;147636;1147;104536;-70
2021/04/20 14:15:12;;;;;;;8.10;5.70;;;;;;;17.80;37.43;99782.83;147580;1145;104566;-73
2021/04/20 14:18:17;;;;;;;4.90;4.40;;;;;;;17.66;37.86;99777.47;147343;1147;104560;-73
2021/04/20 14:21:22;;;;;;;4.95;4.45;;;;;;;17.66;37.31;99772.07;147347;1147;104559;-75
2021/04/20 14:24:26;;;;;;;5.65;4.30;;;;;;;17.78;38.36;99774.97;147289;1146;104532;-72